createdAt,value
2022-12-15T00:00:00.693Z,95423.72
2022-12-15T00:02:27.128Z,95424.25
2022-12-15T00:04:53.462Z,95427.44
2022-12-15T00:07:19.710Z,95429.03
2022-12-15T00:09:45.963Z,95427.69
2022-12-15T00:12:12.223Z,95418.38
2022-12-15T00:14:38.470Z,95424.78
2022-12-15T00:17:04.727Z,95419.19
2022-12-15T00:19:30.984Z,95417.06
2022-12-15T00:21:57.230Z,95419.72
2022-12-15T00:24:23.503Z,95419.44
2022-12-15T00:26:49.755Z,95408.78
2022-12-15T00:29:16.013Z,95416.00
2022-12-15T00:31:42.297Z,95413.84
2022-12-15T00:34:08.599Z,95415.47
2022-12-15T00:36:34.875Z,95418.38
2022-12-15T00:39:03.985Z,95417.31
2022-12-15T00:41:30.556Z,95409.34
2022-12-15T00:43:56.814Z,95412.25
2022-12-15T00:46:23.116Z,95402.41
2022-12-15T00:48:49.414Z,95389.09
2022-12-15T00:51:15.681Z,95389.09
2022-12-15T00:53:41.935Z,95388.03
2022-12-15T00:56:08.208Z,95390.41
2022-12-15T00:58:34.490Z,95395.47
2022-12-15T01:01:00.765Z,95398.69
2022-12-15T01:03:27.110Z,95409.88
2022-12-15T01:05:53.495Z,95416.53
2022-12-15T01:08:19.755Z,95418.13
2022-12-15T01:10:46.006Z,95411.19
2022-12-15T01:13:12.246Z,95405.59
2022-12-15T01:15:38.520Z,95410.13
2022-12-15T01:18:04.789Z,95407.47
2022-12-15T01:20:31.063Z,95413.84
2022-12-15T01:22:57.300Z,95428.25
2022-12-15T01:25:23.577Z,95439.41
2022-12-15T01:27:49.863Z,95431.69
2022-12-15T01:30:16.111Z,95430.63
2022-12-15T01:32:45.980Z,95431.69
2022-12-15T01:35:12.664Z,95439.16
2022-12-15T01:37:38.934Z,95439.97
2022-12-15T01:40:05.174Z,95436.50
2022-12-15T01:42:31.429Z,95437.28
2022-12-15T01:44:57.670Z,95437.03
2022-12-15T01:47:23.906Z,95439.41
2022-12-15T01:49:50.173Z,95438.88
2022-12-15T01:52:16.437Z,95433.28
2022-12-15T01:54:42.684Z,95433.28
2022-12-15T01:57:08.948Z,95438.34
2022-12-15T01:59:35.275Z,95444.19
2022-12-15T02:02:01.622Z,95429.81
2022-12-15T02:04:28.142Z,95438.06
2022-12-15T02:06:54.399Z,95433.28
2022-12-15T02:09:20.637Z,95443.13
2022-12-15T02:11:46.885Z,95436.19
2022-12-15T02:14:13.140Z,95438.06
2022-12-15T02:16:39.423Z,95436.72
2022-12-15T02:19:05.746Z,95439.38
2022-12-15T02:21:31.993Z,95438.84
2022-12-15T02:23:58.227Z,95430.31
2022-12-15T02:26:24.504Z,95426.34
2022-12-15T02:28:50.833Z,95427.94
2022-12-15T02:31:17.111Z,95423.94
2022-12-15T02:33:43.353Z,95422.63
2022-12-15T02:36:09.620Z,95409.84
2022-12-15T02:38:35.854Z,95410.09
2022-12-15T02:41:02.092Z,95410.38
2022-12-15T02:43:28.870Z,95416.50
2022-12-15T02:45:55.371Z,95407.97
2022-12-15T02:48:21.633Z,95421.00
2022-12-15T02:50:47.899Z,95418.63
2022-12-15T02:53:14.152Z,95418.88
2022-12-15T02:55:40.553Z,95415.94
2022-12-15T02:58:06.812Z,95420.22
2022-12-15T03:00:33.076Z,95415.41
2022-12-15T03:02:59.425Z,95427.91
2022-12-15T03:05:25.775Z,95412.75
2022-12-15T03:07:52.037Z,95406.63
2022-12-15T03:10:18.292Z,95411.41
2022-12-15T03:12:44.542Z,95410.34
2022-12-15T03:15:10.797Z,95410.63
2022-12-15T03:17:37.061Z,95412.72
2022-12-15T03:20:03.343Z,95411.41
2022-12-15T03:22:29.597Z,95407.94
2022-12-15T03:24:55.848Z,95403.69
2022-12-15T03:27:22.107Z,95403.66
2022-12-15T03:29:48.349Z,95414.03
2022-12-15T03:32:14.713Z,95425.72
2022-12-15T03:34:41.027Z,95412.16
2022-12-15T03:37:07.302Z,95428.13
2022-12-15T03:39:33.576Z,95416.16
2022-12-15T03:41:59.832Z,95420.41
2022-12-15T03:44:26.094Z,95412.16
2022-12-15T03:46:52.361Z,95410.56
2022-12-15T03:49:18.606Z,95411.09
2022-12-15T03:51:44.869Z,95402.31
2022-12-15T03:54:11.117Z,95416.13
2022-12-15T03:56:37.394Z,95416.38
2022-12-15T03:59:03.641Z,95408.13
2022-12-15T04:01:30.052Z,95396.41
2022-12-15T04:04:00.572Z,95399.63
2022-12-15T04:06:27.597Z,95391.34
2022-12-15T04:08:53.856Z,95407.84
2022-12-15T04:11:20.110Z,95403.03
2022-12-15T04:13:46.369Z,95399.06
2022-12-15T04:16:16.288Z,95394.00
2022-12-15T04:18:45.923Z,95395.06
2022-12-15T04:21:12.161Z,95392.94
2022-12-15T04:23:38.428Z,95388.94
2022-12-15T04:26:04.670Z,95388.69
2022-12-15T04:28:30.961Z,95380.19
2022-12-15T04:30:57.244Z,95389.47
2022-12-15T04:33:27.711Z,95384.69
2022-12-15T04:35:55.420Z,95380.16
2022-12-15T04:38:21.675Z,95380.41
2022-12-15T04:40:47.926Z,95390.75
2022-12-15T04:43:14.161Z,95390.22
2022-12-15T04:45:40.412Z,95395.25
2022-12-15T04:48:06.682Z,95389.16
2022-12-15T04:50:32.930Z,95391.25
2022-12-15T04:52:59.184Z,95393.63
2022-12-15T04:55:25.418Z,95392.03
2022-12-15T04:57:51.683Z,95386.16
2022-12-15T05:00:17.924Z,95382.44
2022-12-15T05:02:44.243Z,95383.22
2022-12-15T05:05:10.525Z,95374.44
2022-12-15T05:07:36.797Z,95373.31
2022-12-15T05:10:03.902Z,95380.47
2022-12-15T05:12:30.584Z,95379.66
2022-12-15T05:14:56.845Z,95369.03
2022-12-15T05:17:23.138Z,95366.94
2022-12-15T05:19:49.428Z,95360.84
2022-12-15T05:22:15.777Z,95349.16
2022-12-15T05:24:42.015Z,95354.72
2022-12-15T05:27:08.263Z,95360.03
2022-12-15T05:29:34.536Z,95355.78
2022-12-15T05:32:00.783Z,95357.94
2022-12-15T05:34:27.021Z,95351.28
2022-12-15T05:36:53.308Z,95364.03
2022-12-15T05:39:19.575Z,95347.00
2022-12-15T05:41:45.854Z,95347.00
2022-12-15T05:44:12.094Z,95359.75
2022-12-15T05:46:38.391Z,95356.53
2022-12-15T05:49:04.670Z,95352.28
2022-12-15T05:51:30.923Z,95352.81
2022-12-15T05:53:57.157Z,95359.44
2022-12-15T05:56:23.410Z,95358.66
2022-12-15T05:58:49.687Z,95349.56
2022-12-15T06:01:15.955Z,95357.50
2022-12-15T06:03:42.196Z,95352.72
2022-12-15T06:06:08.437Z,95361.19
2022-12-15T06:08:34.684Z,95360.66
2022-12-15T06:11:00.942Z,95358.72
2022-12-15T06:13:27.191Z,95349.94
2022-12-15T06:15:53.495Z,95349.91
2022-12-15T06:18:19.747Z,95353.31
2022-12-15T06:20:46.029Z,95354.09
2022-12-15T06:23:15.958Z,95355.34
2022-12-15T06:25:42.219Z,95351.91
2022-12-15T06:28:08.485Z,95360.38
2022-12-15T06:30:34.764Z,95356.63
2022-12-15T06:33:01.030Z,95370.97
2022-12-15T06:35:27.292Z,95362.47
2022-12-15T06:37:53.538Z,95382.34
2022-12-15T06:40:19.874Z,95381.56
2022-12-15T06:42:46.231Z,95388.72
2022-12-15T06:45:12.500Z,95391.63
2022-12-15T06:47:38.733Z,95400.38
2022-12-15T06:50:05.010Z,95402.47
2022-12-15T06:52:31.263Z,95399.56
2022-12-15T06:54:57.513Z,95405.38
2022-12-15T06:57:23.782Z,95414.94
2022-12-15T06:59:50.049Z,95423.97
2022-12-15T07:02:16.479Z,95420.75
2022-12-15T07:04:42.853Z,95427.38
2022-12-15T07:07:09.119Z,95426.81
2022-12-15T07:09:35.395Z,95426.56
2022-12-15T07:12:01.638Z,95436.63
2022-12-15T07:14:27.910Z,95451.75
2022-12-15T07:16:54.173Z,95458.59
2022-12-15T07:19:20.444Z,95447.19
2022-12-15T07:21:46.709Z,95458.28
2022-12-15T07:24:13.015Z,95460.44
2022-12-15T07:26:39.287Z,95448.22
2022-12-15T07:29:05.542Z,95443.19
2022-12-15T07:31:31.868Z,95445.84
2022-12-15T07:33:58.174Z,95452.00
2022-12-15T07:36:24.425Z,95449.34
2022-12-15T07:38:51.559Z,95443.53
2022-12-15T07:41:18.191Z,95443.53
2022-12-15T07:43:44.465Z,95431.41
2022-12-15T07:46:10.924Z,95431.91
2022-12-15T07:48:37.229Z,95429.00
2022-12-15T07:51:09.499Z,95416.50
2022-12-15T07:53:37.554Z,95408.00
2022-12-15T07:56:08.996Z,95405.09
2022-12-15T07:58:35.801Z,95420.22
2022-12-15T08:01:02.138Z,95423.41
2022-12-15T08:03:28.741Z,95417.56
2022-12-15T08:06:00.295Z,95422.81
2022-12-15T08:08:30.316Z,95424.41
2022-12-15T08:10:56.951Z,95431.81
2022-12-15T08:13:52.840Z,95436.53
2022-12-15T08:16:09.498Z,95454.84
2022-12-15T08:18:35.792Z,95454.28
2022-12-15T08:21:02.045Z,95460.91
2022-12-15T08:23:28.631Z,95480.19
2022-12-15T08:25:55.344Z,95495.19
2022-12-15T08:28:21.592Z,95493.72
2022-12-15T08:30:47.845Z,95494.03
2022-12-15T08:33:14.111Z,95491.44
2022-12-15T08:35:56.451Z,95492.25
2022-12-15T08:38:23.257Z,95484.91
2022-12-15T08:40:49.510Z,95475.09
2022-12-15T08:43:15.769Z,95483.34
2022-12-15T08:45:42.206Z,95480.75
2022-12-15T08:48:08.533Z,95474.16
2022-12-15T08:50:34.817Z,95474.22
2022-12-15T08:53:29.467Z,95473.75
2022-12-15T08:55:47.458Z,95457.91
2022-12-15T08:58:13.738Z,95452.88
2022-12-15T09:00:40.008Z,95455.34
2022-12-15T09:03:06.268Z,95439.50
2022-12-15T09:05:32.555Z,95449.13
2022-12-15T09:08:04.619Z,95445.97
2022-12-15T09:10:32.737Z,95449.44
2022-12-15T09:12:59.062Z,95458.50
2022-12-15T09:15:39.465Z,95461.22
2022-12-15T09:18:11.618Z,95460.16
2022-12-15T09:20:37.892Z,95467.31
2022-12-15T09:23:04.138Z,95460.66
2022-12-15T09:25:30.433Z,95448.41
2022-12-15T09:27:56.746Z,95450.75
2022-12-15T09:30:23.065Z,95450.22
2022-12-15T09:32:49.331Z,95451.50
2022-12-15T09:35:15.627Z,95450.16
2022-12-15T09:37:44.737Z,95448.31
2022-12-15T09:40:13.374Z,95453.38
2022-12-15T09:42:39.667Z,95454.13
2022-12-15T09:45:05.972Z,95445.06
2022-12-15T09:47:32.256Z,95449.53
2022-12-15T09:49:58.532Z,95448.97
2022-12-15T09:52:24.856Z,95444.72
2022-12-15T09:54:51.182Z,95447.38
2022-12-15T09:57:17.512Z,95446.88
2022-12-15T09:59:43.803Z,95449.97
2022-12-15T10:02:10.216Z,95450.06
2022-12-15T10:04:36.581Z,95444.78
2022-12-15T10:07:02.857Z,95440.25
2022-12-15T10:09:29.149Z,95442.13
2022-12-15T10:11:55.429Z,95433.41
2022-12-15T10:14:21.701Z,95435.28
2022-12-15T10:16:47.950Z,95435.84
2022-12-15T10:19:16.452Z,95433.41
2022-12-15T10:21:42.705Z,95423.06
2022-12-15T10:24:08.959Z,95413.56
2022-12-15T10:26:35.239Z,95402.97
2022-12-15T10:29:01.509Z,95391.56
2022-12-15T10:31:27.793Z,95395.22
2022-12-15T10:33:54.047Z,95391.31
2022-12-15T10:36:20.885Z,95386.53
2022-12-15T10:38:47.147Z,95380.19
2022-12-15T10:41:16.929Z,95385.47
2022-12-15T10:43:43.201Z,95373.84
2022-12-15T10:46:09.512Z,95369.34
2022-12-15T10:48:35.829Z,95363.50
2022-12-15T10:51:02.237Z,95345.41
2022-12-15T10:53:28.881Z,95344.38
2022-12-15T10:55:55.359Z,95342.50
2022-12-15T10:58:21.619Z,95336.69
2022-12-15T11:00:50.908Z,95337.50
2022-12-15T11:03:17.612Z,95338.31
2022-12-15T11:05:44.058Z,95327.16
2022-12-15T11:08:12.382Z,95328.78
2022-12-15T11:10:38.713Z,95326.66
2022-12-15T11:13:05.013Z,95320.31
2022-12-15T11:15:31.355Z,95322.97
2022-12-15T11:17:57.676Z,95309.69
2022-12-15T11:20:23.927Z,95300.38
2022-12-15T11:22:50.282Z,95295.34
2022-12-15T11:25:16.567Z,95295.72
2022-12-15T11:27:42.828Z,95294.94
2022-12-15T11:30:09.114Z,95284.84
2022-12-15T11:32:35.380Z,95270.53
2022-12-15T11:35:01.655Z,95266.00
2022-12-15T11:37:34.029Z,95255.13
2022-12-15T11:40:02.389Z,95256.19
2022-12-15T11:42:28.731Z,95250.34
2022-12-15T11:44:54.982Z,95250.56
2022-12-15T11:47:21.610Z,95249.50
2022-12-15T11:49:47.936Z,95249.66
2022-12-15T11:52:15.072Z,95248.34
2022-12-15T11:54:41.316Z,95234.81
2022-12-15T11:57:07.604Z,95231.19
2022-12-15T11:59:33.945Z,95230.13
2022-12-15T12:02:03.344Z,95222.72
2022-12-15T12:04:29.958Z,95215.31
2022-12-15T12:06:56.214Z,95207.31
2022-12-15T12:09:22.470Z,95211.31
2022-12-15T12:11:50.420Z,95209.72
2022-12-15T12:14:16.944Z,95208.69
2022-12-15T12:16:43.186Z,95204.69
2022-12-15T12:19:09.552Z,95202.31
2022-12-15T12:21:35.877Z,95183.69
2022-12-15T12:24:02.148Z,95179.19
2022-12-15T12:26:28.416Z,95181.31
2022-12-15T12:28:54.708Z,95176.25
2022-12-15T12:31:20.969Z,95171.72
2022-12-15T12:33:47.254Z,95181.81
2022-12-15T12:36:14.995Z,95180.75
2022-12-15T12:38:41.288Z,95176.75
2022-12-15T12:41:07.651Z,95186.59
2022-12-15T12:43:34.665Z,95186.34
2022-12-15T12:46:01.369Z,95189.00
2022-12-15T12:48:27.633Z,95179.41
2022-12-15T12:50:53.879Z,95177.03
2022-12-15T12:53:20.149Z,95178.38
2022-12-15T12:55:46.394Z,95173.59
2022-12-15T12:58:13.282Z,95169.59
2022-12-15T13:00:39.666Z,95166.69
2022-12-15T13:03:06.068Z,95172.78
2022-12-15T13:05:32.342Z,95170.13
2022-12-15T13:07:58.618Z,95160.28
2022-12-15T13:10:24.865Z,95148.34
2022-12-15T13:12:52.341Z,95149.13
2022-12-15T13:15:19.374Z,95148.88
2022-12-15T13:17:45.662Z,95138.25
2022-12-15T13:20:15.149Z,95140.91
2022-12-15T13:22:41.438Z,95135.59
2022-12-15T13:25:07.692Z,95146.22
2022-12-15T13:27:33.945Z,95153.66
2022-12-15T13:30:00.225Z,95145.41
2022-12-15T13:32:26.718Z,95148.06
2022-12-15T13:34:53.091Z,95143.03
2022-12-15T13:37:19.358Z,95146.75
2022-12-15T13:39:45.714Z,95129.19
2022-12-15T13:42:33.464Z,95127.09
2022-12-15T13:45:01.605Z,95122.56
2022-12-15T13:47:27.864Z,95126.28
2022-12-15T13:50:01.040Z,95125.75
2022-12-15T13:52:51.338Z,95120.72
2022-12-15T13:55:14.465Z,95131.28
2022-12-15T13:57:40.825Z,95118.84
2022-12-15T14:00:07.089Z,95117.25
2022-12-15T14:02:33.399Z,95106.06
2022-12-15T14:04:59.683Z,95104.19
2022-12-15T14:07:25.942Z,95105.78
2022-12-15T14:09:52.210Z,95105.25
2022-12-15T14:12:18.496Z,95110.00
2022-12-15T14:14:44.741Z,95110.53
2022-12-15T14:17:13.493Z,95105.97
2022-12-15T14:19:39.862Z,95100.16
2022-12-15T14:22:06.131Z,95099.88
2022-12-15T14:24:40.417Z,95111.59
2022-12-15T14:27:07.030Z,95113.72
2022-12-15T14:29:33.295Z,95110.53
2022-12-15T14:31:59.574Z,95110.53
2022-12-15T14:34:25.858Z,95121.16
2022-12-15T14:36:52.108Z,95115.84
2022-12-15T14:39:18.352Z,95119.56
2022-12-15T14:41:44.626Z,95117.13
2022-12-15T14:44:36.458Z,95116.31
2022-12-15T14:47:01.569Z,95125.03
2022-12-15T14:49:27.866Z,95138.56
2022-12-15T14:51:54.138Z,95131.13
2022-12-15T14:54:21.110Z,95133.25
2022-12-15T14:56:47.358Z,95135.19
2022-12-15T14:59:13.620Z,95143.97
2022-12-15T15:01:40.088Z,95145.56
2022-12-15T15:04:06.561Z,95145.56
2022-12-15T15:06:32.812Z,95150.06
2022-12-15T15:08:59.088Z,95152.47
2022-12-15T15:11:25.374Z,95149.31
2022-12-15T15:13:51.634Z,95151.44
2022-12-15T15:16:17.937Z,95149.31
2022-12-15T15:18:44.243Z,95144.53
2022-12-15T15:21:10.574Z,95149.84
2022-12-15T15:23:36.865Z,95141.88
2022-12-15T15:26:03.118Z,95134.41
2022-12-15T15:28:29.766Z,95138.69
2022-12-15T15:30:56.879Z,95123.53
2022-12-15T15:33:23.258Z,95120.63
2022-12-15T15:35:49.506Z,95120.09
2022-12-15T15:38:15.766Z,95106.81
2022-12-15T15:40:42.047Z,95108.16
2022-12-15T15:43:08.298Z,95099.94
2022-12-15T15:45:34.534Z,95096.22
2022-12-15T15:48:00.806Z,95089.84
2022-12-15T15:50:27.086Z,95092.75
2022-12-15T15:52:53.375Z,95087.19
2022-12-15T15:55:19.625Z,95082.38
2022-12-15T15:57:45.954Z,95069.66
2022-12-15T16:00:12.287Z,95073.13
2022-12-15T16:02:38.715Z,95069.41
2022-12-15T16:05:05.228Z,95065.66
2022-12-15T16:07:31.514Z,95066.19
2022-12-15T16:09:57.774Z,95069.94
2022-12-15T16:12:24.173Z,95087.41
2022-12-15T16:14:50.544Z,95086.06
2022-12-15T16:17:16.824Z,95087.63
2022-12-15T16:19:43.101Z,95086.81
2022-12-15T16:22:09.361Z,95084.91
2022-12-15T16:24:35.600Z,95098.69
2022-12-15T16:27:01.924Z,95098.72
2022-12-15T16:29:28.184Z,95098.00
2022-12-15T16:31:54.571Z,95098.28
2022-12-15T16:34:20.942Z,95093.44
2022-12-15T16:36:47.192Z,95090.75
2022-12-15T16:39:13.495Z,95090.50
2022-12-15T16:41:39.743Z,95084.38
2022-12-15T16:44:05.998Z,95096.59
2022-12-15T16:46:32.364Z,95079.63
2022-12-15T16:48:58.708Z,95084.38
2022-12-15T16:51:25.005Z,95091.38
2022-12-15T16:53:51.287Z,95092.97
2022-12-15T16:56:17.546Z,95092.75
2022-12-15T16:58:48.512Z,95090.63
2022-12-15T17:01:15.113Z,95097.19
2022-12-15T17:03:41.445Z,95091.47
2022-12-15T17:06:07.746Z,95089.34
2022-12-15T17:08:34.634Z,95094.66
2022-12-15T17:11:01.154Z,95100.78
2022-12-15T17:13:33.654Z,95091.19
2022-12-15T17:16:03.091Z,95091.19
2022-12-15T17:18:29.693Z,95089.06
2022-12-15T17:20:56.244Z,95077.13
2022-12-15T17:23:22.501Z,95085.38
2022-12-15T17:28:34.960Z,95077.41
2022-12-15T17:31:01.277Z,95090.38
2022-12-15T17:33:27.591Z,95089.72
2022-12-15T17:35:53.856Z,95084.19
2022-12-15T17:38:20.103Z,95079.94
2022-12-15T17:40:46.360Z,95083.69
2022-12-15T17:43:12.640Z,95089.22
2022-12-15T17:45:38.898Z,95092.53
2022-12-15T17:48:05.176Z,95090.47
2022-12-15T17:50:31.487Z,95097.63
2022-12-15T17:52:57.739Z,95101.53
2022-12-15T17:55:24.012Z,95105.19
2022-12-15T17:57:50.280Z,95103.91
2022-12-15T18:00:16.541Z,95102.09
2022-12-15T18:02:42.957Z,95105.81
2022-12-15T18:05:09.254Z,95111.69
2022-12-15T18:07:35.544Z,95101.16
2022-12-15T18:10:01.803Z,95109.13
2022-12-15T18:12:28.042Z,95101.97
2022-12-15T18:14:54.353Z,95114.38
2022-12-15T18:17:20.620Z,95100.91
2022-12-15T18:19:46.929Z,95106.03
2022-12-15T18:22:13.218Z,95107.63
2022-12-15T18:24:39.462Z,95093.31
2022-12-15T18:27:05.716Z,95099.94
2022-12-15T18:29:31.996Z,95105.00
2022-12-15T18:31:58.480Z,95107.91
2022-12-15T18:34:24.761Z,95105.00
2022-12-15T18:36:51.001Z,95111.34
2022-12-15T18:39:17.291Z,95108.16
2022-12-15T18:41:43.534Z,95106.47
2022-12-15T18:44:09.786Z,95103.38
2022-12-15T18:46:36.115Z,95105.22
2022-12-15T18:49:02.411Z,95101.50
2022-12-15T18:51:28.669Z,95101.50
2022-12-15T18:53:54.932Z,95099.13
2022-12-15T18:56:21.188Z,95104.94
2022-12-15T18:58:47.522Z,95099.34
2022-12-15T19:01:13.844Z,95107.34
2022-12-15T19:03:40.191Z,95112.06
2022-12-15T19:06:06.458Z,95120.06
2022-12-15T19:08:32.705Z,95115.31
2022-12-15T19:10:59.000Z,95112.66
2022-12-15T19:13:25.287Z,95126.69
2022-12-15T19:15:51.539Z,95128.88
2022-12-15T19:18:17.822Z,95131.50
2022-12-15T19:20:44.192Z,95136.28
2022-12-15T19:23:10.452Z,95132.03
2022-12-15T19:25:36.714Z,95133.59
2022-12-15T19:28:03.000Z,95132.03
2022-12-15T19:30:29.262Z,95128.84
2022-12-15T19:32:55.543Z,95129.41
2022-12-15T19:35:21.793Z,95131.78
2022-12-15T19:37:48.049Z,95133.13
2022-12-15T19:40:14.313Z,95128.38
2022-12-15T19:42:40.564Z,95123.06
2022-12-15T19:45:06.810Z,95134.22
2022-12-15T19:47:33.062Z,95128.09
2022-12-15T19:49:59.320Z,95136.31
2022-12-15T19:52:25.563Z,95131.28
2022-12-15T19:54:51.833Z,95128.63
2022-12-15T19:57:18.124Z,95126.22
2022-12-15T19:59:44.385Z,95131.53
2022-12-15T20:02:10.734Z,95140.81
2022-12-15T20:04:37.133Z,95134.72
2022-12-15T20:07:03.373Z,95143.19
2022-12-15T20:09:29.633Z,95134.72
2022-12-15T20:11:55.890Z,95129.13
2022-12-15T20:14:22.149Z,95125.47
2022-12-15T20:16:48.443Z,95134.47
2022-12-15T20:19:14.736Z,95137.16
2022-12-15T20:21:41.008Z,95138.19
2022-12-15T20:24:07.289Z,95141.66
2022-12-15T20:26:33.539Z,95149.03
2022-12-15T20:28:59.817Z,95149.31
2022-12-15T20:31:26.151Z,95156.47
2022-12-15T20:33:52.480Z,95156.47
2022-12-15T20:36:18.821Z,95155.38
2022-12-15T20:38:45.049Z,95163.81
2022-12-15T20:41:11.312Z,95164.31
2022-12-15T20:43:37.601Z,95168.00
2022-12-15T20:46:03.988Z,95171.91
2022-12-15T20:48:30.302Z,95173.91
2022-12-15T20:50:56.538Z,95183.13
2022-12-15T20:53:22.783Z,95177.25
2022-12-15T20:55:49.119Z,95182.53
2022-12-15T20:58:15.377Z,95186.69
2022-12-15T21:00:41.621Z,95179.81
2022-12-15T21:03:07.953Z,95175.75
2022-12-15T21:05:34.408Z,95172.00
2022-12-15T21:08:00.670Z,95177.00
2022-12-15T21:10:26.928Z,95178.41
2022-12-15T21:12:53.234Z,95169.19
2022-12-15T21:15:19.500Z,95167.00
2022-12-15T21:17:45.743Z,95165.84
2022-12-15T21:20:11.988Z,95173.53
2022-12-15T21:22:38.259Z,95175.13
2022-12-15T21:25:04.517Z,95181.75
2022-12-15T21:27:30.765Z,95190.81
2022-12-15T21:29:57.006Z,95189.22
2022-12-15T21:32:23.278Z,95187.69
2022-12-15T21:34:49.513Z,95192.75
2022-12-15T21:37:15.754Z,95200.47
2022-12-15T21:39:42.059Z,95187.50
2022-12-15T21:42:08.333Z,95200.00
2022-12-15T21:44:34.578Z,95195.47
2022-12-15T21:47:00.856Z,95197.16
2022-12-15T21:49:27.095Z,95204.34
2022-12-15T21:51:53.408Z,95206.72
2022-12-15T21:54:24.729Z,95207.50
2022-12-15T21:56:53.811Z,95213.88
2022-12-15T21:59:21.464Z,95220.22
2022-12-15T22:01:47.896Z,95217.03
2022-12-15T22:04:14.248Z,95227.63
2022-12-15T22:06:40.624Z,95226.81
2022-12-15T22:09:06.909Z,95227.91
2022-12-15T22:11:33.244Z,95227.66
2022-12-15T22:13:59.488Z,95225.78
2022-12-15T22:16:25.760Z,95219.44
2022-12-15T22:18:52.028Z,95230.59
2022-12-15T22:21:18.292Z,95229.00
2022-12-15T22:23:44.553Z,95231.13
2022-12-15T22:26:10.790Z,95234.78
2022-12-15T22:28:37.045Z,95229.69
2022-12-15T22:31:03.362Z,95239.03
2022-12-15T22:33:29.668Z,95233.50
2022-12-15T22:35:55.932Z,95239.03
2022-12-15T22:38:22.190Z,95239.03
2022-12-15T22:40:48.448Z,95232.69
2022-12-15T22:43:14.693Z,95243.31
2022-12-15T22:45:42.699Z,95241.75
2022-12-15T22:48:09.218Z,95248.13
2022-12-15T22:50:35.516Z,95247.84
2022-12-15T22:53:01.909Z,95247.31
2022-12-15T22:55:28.273Z,95244.16
2022-12-15T22:57:54.525Z,95250.81
2022-12-15T23:00:20.779Z,95241.28
2022-12-15T23:02:47.067Z,95242.31
2022-12-15T23:05:13.435Z,95235.69
2022-12-15T23:07:39.701Z,95241.03
2022-12-15T23:10:05.957Z,95239.19
2022-12-15T23:12:32.226Z,95241.03
2022-12-15T23:14:58.492Z,95236.00
2022-12-15T23:17:24.757Z,95238.38
2022-12-15T23:19:51.038Z,95242.88
2022-12-15T23:22:17.772Z,95239.19
2022-12-15T23:24:44.024Z,95238.38
2022-12-15T23:27:10.270Z,95247.69
2022-12-15T23:29:36.508Z,95251.59
2022-12-15T23:32:02.750Z,95260.78
2022-12-15T23:34:29.018Z,95259.59
2022-12-15T23:36:55.272Z,95264.81
2022-12-15T23:39:21.609Z,95265.38
2022-12-15T23:41:47.866Z,95261.97
2022-12-15T23:44:14.110Z,95264.34
2022-12-15T23:46:40.413Z,95259.59
2022-12-15T23:49:06.733Z,95266.00
2022-12-15T23:51:33.239Z,95266.03
2022-12-15T23:53:59.537Z,95274.53
2022-12-15T23:56:25.813Z,95277.44
2022-12-15T23:58:52.080Z,95279.25
